sensor_id;sensor_type;location;lat;lon;timestamp;temperature;humidity
3648;DHT22;1840;48.892;15.312;2022-08-11T00:02:32;10.90;82.30
3648;DHT22;1840;48.892;15.312;2022-08-11T00:05:05;10.70;83.00
3648;DHT22;1840;48.892;15.312;2022-08-11T00:07:34;10.50;83.10
3648;DHT22;1840;48.892;15.312;2022-08-11T00:10:10;10.60;83.70
3648;DHT22;1840;48.892;15.312;2022-08-11T00:12:39;10.60;84.00
3648;DHT22;1840;48.892;15.312;2022-08-11T00:15:09;10.60;84.10
3648;DHT22;1840;48.892;15.312;2022-08-11T00:17:40;10.60;84.10
3648;DHT22;1840;48.892;15.312;2022-08-11T00:20:12;10.60;84.60
3648;DHT22;1840;48.892;15.312;2022-08-11T00:22:45;10.50;84.30
3648;DHT22;1840;48.892;15.312;2022-08-11T00:25:16;10.50;85.20
3648;DHT22;1840;48.892;15.312;2022-08-11T00:27:46;10.50;84.70
3648;DHT22;1840;48.892;15.312;2022-08-11T00:30:15;10.50;85.30
3648;DHT22;1840;48.892;15.312;2022-08-11T00:32:52;10.50;85.10
3648;DHT22;1840;48.892;15.312;2022-08-11T00:35:25;10.50;85.20
3648;DHT22;1840;48.892;15.312;2022-08-11T00:38:14;10.30;85.00
3648;DHT22;1840;48.892;15.312;2022-08-11T00:40:52;10.20;85.50
3648;DHT22;1840;48.892;15.312;2022-08-11T00:43:31;10.20;85.40
3648;DHT22;1840;48.892;15.312;2022-08-11T00:46:13;10.20;85.60
3648;DHT22;1840;48.892;15.312;2022-08-11T00:51:47;10.20;85.90
3648;DHT22;1840;48.892;15.312;2022-08-11T00:55:06;10.20;86.40
3648;DHT22;1840;48.892;15.312;2022-08-11T00:58:27;10.20;86.10
3648;DHT22;1840;48.892;15.312;2022-08-11T01:01:25;10.10;85.00
3648;DHT22;1840;48.892;15.312;2022-08-11T01:10:43;9.90;85.90
3648;DHT22;1840;48.892;15.312;2022-08-11T01:13:18;9.80;86.10
3648;DHT22;1840;48.892;15.312;2022-08-11T01:23:01;9.60;87.30
3648;DHT22;1840;48.892;15.312;2022-08-11T01:31:59;9.50;86.70
3648;DHT22;1840;48.892;15.312;2022-08-11T01:34:53;9.40;87.40
3648;DHT22;1840;48.892;15.312;2022-08-11T01:44:12;9.00;87.00
3648;DHT22;1840;48.892;15.312;2022-08-11T01:47:12;8.80;88.20
3648;DHT22;1840;48.892;15.312;2022-08-11T01:50:13;8.90;88.70
3648;DHT22;1840;48.892;15.312;2022-08-11T01:52:57;8.90;89.20
3648;DHT22;1840;48.892;15.312;2022-08-11T01:55:39;8.90;89.10
3648;DHT22;1840;48.892;15.312;2022-08-11T01:58:16;8.80;88.80
3648;DHT22;1840;48.892;15.312;2022-08-11T02:01:12;8.80;89.80
3648;DHT22;1840;48.892;15.312;2022-08-11T02:03:48;8.80;89.60
3648;DHT22;1840;48.892;15.312;2022-08-11T02:06:31;8.90;89.20
3648;DHT22;1840;48.892;15.312;2022-08-11T02:09:37;8.90;89.30
3648;DHT22;1840;48.892;15.312;2022-08-11T02:15:24;8.90;90.10
3648;DHT22;1840;48.892;15.312;2022-08-11T02:18:03;8.70;89.90
3648;DHT22;1840;48.892;15.312;2022-08-11T02:20:36;8.70;89.70
3648;DHT22;1840;48.892;15.312;2022-08-11T02:23:31;8.60;89.90
3648;DHT22;1840;48.892;15.312;2022-08-11T02:26:32;8.70;89.70
3648;DHT22;1840;48.892;15.312;2022-08-11T02:29:08;8.80;89.00
3648;DHT22;1840;48.892;15.312;2022-08-11T02:31:49;8.80;89.20
3648;DHT22;1840;48.892;15.312;2022-08-11T02:35:03;8.80;89.10
3648;DHT22;1840;48.892;15.312;2022-08-11T02:37:44;8.60;89.00
3648;DHT22;1840;48.892;15.312;2022-08-11T02:40:24;8.50;89.10
3648;DHT22;1840;48.892;15.312;2022-08-11T02:43:22;8.50;89.30
3648;DHT22;1840;48.892;15.312;2022-08-11T02:45:59;8.50;89.70
3648;DHT22;1840;48.892;15.312;2022-08-11T02:48:39;8.40;90.10
3648;DHT22;1840;48.892;15.312;2022-08-11T02:51:39;8.40;90.20
3648;DHT22;1840;48.892;15.312;2022-08-11T02:54:16;8.40;90.00
3648;DHT22;1840;48.892;15.312;2022-08-11T02:56:56;8.40;90.40
3648;DHT22;1840;48.892;15.312;2022-08-11T02:59:39;8.30;90.20
3648;DHT22;1840;48.892;15.312;2022-08-11T03:02:41;8.20;90.10
3648;DHT22;1840;48.892;15.312;2022-08-11T03:05:21;8.00;90.00
3648;DHT22;1840;48.892;15.312;2022-08-11T03:08:18;7.90;90.20
3648;DHT22;1840;48.892;15.312;2022-08-11T03:11:00;7.80;90.50
3648;DHT22;1840;48.892;15.312;2022-08-11T03:14:05;7.60;90.90
3648;DHT22;1840;48.892;15.312;2022-08-11T03:16:59;7.80;91.00
3648;DHT22;1840;48.892;15.312;2022-08-11T03:19:41;7.90;91.20
3648;DHT22;1840;48.892;15.312;2022-08-11T03:22:18;8.00;91.10
3648;DHT22;1840;48.892;15.312;2022-08-11T03:24:55;7.90;91.20
3648;DHT22;1840;48.892;15.312;2022-08-11T03:27:33;8.00;91.30
3648;DHT22;1840;48.892;15.312;2022-08-11T03:30:12;8.00;90.90
3648;DHT22;1840;48.892;15.312;2022-08-11T03:32:50;7.90;90.80
3648;DHT22;1840;48.892;15.312;2022-08-11T03:35:39;7.70;90.90
3648;DHT22;1840;48.892;15.312;2022-08-11T03:38:11;7.50;91.60
3648;DHT22;1840;48.892;15.312;2022-08-11T03:41:03;7.60;91.70
3648;DHT22;1840;48.892;15.312;2022-08-11T03:44:31;7.60;91.70
3648;DHT22;1840;48.892;15.312;2022-08-11T03:47:21;7.60;91.60
3648;DHT22;1840;48.892;15.312;2022-08-11T03:50:03;7.50;91.50
3648;DHT22;1840;48.892;15.312;2022-08-11T03:52:47;7.40;91.50
3648;DHT22;1840;48.892;15.312;2022-08-11T03:58:27;7.30;91.30
3648;DHT22;1840;48.892;15.312;2022-08-11T04:01:40;7.30;91.90
3648;DHT22;1840;48.892;15.312;2022-08-11T04:07:38;7.40;92.00
3648;DHT22;1840;48.892;15.312;2022-08-11T04:10:33;7.50;91.90
3648;DHT22;1840;48.892;15.312;2022-08-11T04:13:27;7.30;91.90
3648;DHT22;1840;48.892;15.312;2022-08-11T04:16:23;7.20;91.70
3648;DHT22;1840;48.892;15.312;2022-08-11T04:25:35;7.20;92.30
3648;DHT22;1840;48.892;15.312;2022-08-11T04:28:59;7.20;92.00
3648;DHT22;1840;48.892;15.312;2022-08-11T04:31:37;7.30;92.00
3648;DHT22;1840;48.892;15.312;2022-08-11T04:34:56;7.30;92.10
3648;DHT22;1840;48.892;15.312;2022-08-11T04:37:56;7.40;91.90
3648;DHT22;1840;48.892;15.312;2022-08-11T04:44:21;7.30;92.00
3648;DHT22;1840;48.892;15.312;2022-08-11T04:47:08;7.30;92.50
3648;DHT22;1840;48.892;15.312;2022-08-11T04:49:57;7.40;92.60
3648;DHT22;1840;48.892;15.312;2022-08-11T04:53:09;7.60;92.60
3648;DHT22;1840;48.892;15.312;2022-08-11T04:56:10;7.70;92.50
3648;DHT22;1840;48.892;15.312;2022-08-11T04:59:19;7.80;92.70
3648;DHT22;1840;48.892;15.312;2022-08-11T05:05:24;8.10;92.80
3648;DHT22;1840;48.892;15.312;2022-08-11T05:11:18;8.40;92.80
3648;DHT22;1840;48.892;15.312;2022-08-11T05:13:51;8.50;92.90
3648;DHT22;1840;48.892;15.312;2022-08-11T05:16:52;8.60;93.10
3648;DHT22;1840;48.892;15.312;2022-08-11T05:19:44;8.80;92.90
3648;DHT22;1840;48.892;15.312;2022-08-11T05:22:31;8.90;93.10
3648;DHT22;1840;48.892;15.312;2022-08-11T05:25:19;9.00;93.00
3648;DHT22;1840;48.892;15.312;2022-08-11T05:28:30;9.10;93.00
3648;DHT22;1840;48.892;15.312;2022-08-11T05:31:19;9.30;93.00
3648;DHT22;1840;48.892;15.312;2022-08-11T05:34:09;9.50;92.90
3648;DHT22;1840;48.892;15.312;2022-08-11T05:37:03;9.60;93.00
3648;DHT22;1840;48.892;15.312;2022-08-11T05:39:55;9.80;92.90
3648;DHT22;1840;48.892;15.312;2022-08-11T05:42:49;10.00;92.90
3648;DHT22;1840;48.892;15.312;2022-08-11T05:45:35;10.20;92.90
3648;DHT22;1840;48.892;15.312;2022-08-11T05:48:32;10.40;92.70
3648;DHT22;1840;48.892;15.312;2022-08-11T05:51:19;10.70;93.10
3648;DHT22;1840;48.892;15.312;2022-08-11T05:54:22;10.90;92.60
3648;DHT22;1840;48.892;15.312;2022-08-11T05:57:18;11.20;93.00
3648;DHT22;1840;48.892;15.312;2022-08-11T06:00:09;11.40;92.40
3648;DHT22;1840;48.892;15.312;2022-08-11T06:02:41;11.50;91.70
3648;DHT22;1840;48.892;15.312;2022-08-11T06:05:11;11.60;91.80
3648;DHT22;1840;48.892;15.312;2022-08-11T06:07:40;11.90;91.60
3648;DHT22;1840;48.892;15.312;2022-08-11T06:10:26;12.30;91.20
3648;DHT22;1840;48.892;15.312;2022-08-11T06:12:57;12.50;91.20
3648;DHT22;1840;48.892;15.312;2022-08-11T06:15:27;13.00;91.20
3648;DHT22;1840;48.892;15.312;2022-08-11T06:17:58;13.50;90.50
3648;DHT22;1840;48.892;15.312;2022-08-11T06:20:27;14.00;90.10
3648;DHT22;1840;48.892;15.312;2022-08-11T06:23:04;14.50;89.90
3648;DHT22;1840;48.892;15.312;2022-08-11T06:25:35;15.00;88.70
3648;DHT22;1840;48.892;15.312;2022-08-11T06:28:06;15.40;86.40
3648;DHT22;1840;48.892;15.312;2022-08-11T06:30:36;15.70;85.60
3648;DHT22;1840;48.892;15.312;2022-08-11T06:33:28;16.10;84.60
3648;DHT22;1840;48.892;15.312;2022-08-11T06:36:01;16.50;84.30
3648;DHT22;1840;48.892;15.312;2022-08-11T06:38:56;17.10;82.90
3648;DHT22;1840;48.892;15.312;2022-08-11T06:41:32;17.60;81.30
3648;DHT22;1840;48.892;15.312;2022-08-11T06:44:14;18.10;79.90
3648;DHT22;1840;48.892;15.312;2022-08-11T06:46:45;18.60;78.00
3648;DHT22;1840;48.892;15.312;2022-08-11T06:49:15;18.90;76.10
3648;DHT22;1840;48.892;15.312;2022-08-11T06:52:04;19.00;75.30
3648;DHT22;1840;48.892;15.312;2022-08-11T06:54:50;19.10;74.80
3648;DHT22;1840;48.892;15.312;2022-08-11T06:57:22;19.40;74.50
3648;DHT22;1840;48.892;15.312;2022-08-11T07:00:09;19.80;73.00
3648;DHT22;1840;48.892;15.312;2022-08-11T07:03:02;20.20;72.80
3648;DHT22;1840;48.892;15.312;2022-08-11T07:05:40;20.30;71.30
3648;DHT22;1840;48.892;15.312;2022-08-11T07:08:44;20.20;70.90
3648;DHT22;1840;48.892;15.312;2022-08-11T07:11:58;20.20;69.80
3648;DHT22;1840;48.892;15.312;2022-08-11T07:14:50;20.90;65.70
3648;DHT22;1840;48.892;15.312;2022-08-11T07:17:43;21.30;65.80
3648;DHT22;1840;48.892;15.312;2022-08-11T07:20:15;21.50;64.20
3648;DHT22;1840;48.892;15.312;2022-08-11T07:23:03;21.50;65.00
3648;DHT22;1840;48.892;15.312;2022-08-11T07:25:52;21.50;65.10
3648;DHT22;1840;48.892;15.312;2022-08-11T07:28:41;21.70;64.90
3648;DHT22;1840;48.892;15.312;2022-08-11T07:31:30;21.90;64.70
3648;DHT22;1840;48.892;15.312;2022-08-11T07:34:10;22.20;62.70
3648;DHT22;1840;48.892;15.312;2022-08-11T07:36:48;21.80;63.00
3648;DHT22;1840;48.892;15.312;2022-08-11T07:39:19;21.80;62.20
3648;DHT22;1840;48.892;15.312;2022-08-11T07:41:49;21.70;61.70
3648;DHT22;1840;48.892;15.312;2022-08-11T07:44:18;21.50;62.90
3648;DHT22;1840;48.892;15.312;2022-08-11T07:46:49;21.20;61.20
3648;DHT22;1840;48.892;15.312;2022-08-11T07:49:36;21.00;61.40
3648;DHT22;1840;48.892;15.312;2022-08-11T07:52:24;21.20;61.10
3648;DHT22;1840;48.892;15.312;2022-08-11T07:54:59;21.60;59.20
3648;DHT22;1840;48.892;15.312;2022-08-11T07:57:30;21.80;58.70
3648;DHT22;1840;48.892;15.312;2022-08-11T08:00:37;22.10;58.50
3648;DHT22;1840;48.892;15.312;2022-08-11T08:03:29;22.00;57.50
3648;DHT22;1840;48.892;15.312;2022-08-11T08:06:21;21.70;58.00
3648;DHT22;1840;48.892;15.312;2022-08-11T08:09:08;21.80;57.00
3648;DHT22;1840;48.892;15.312;2022-08-11T08:11:55;22.00;55.00
3648;DHT22;1840;48.892;15.312;2022-08-11T08:14:41;22.10;55.60
3648;DHT22;1840;48.892;15.312;2022-08-11T08:17:28;21.90;55.90
3648;DHT22;1840;48.892;15.312;2022-08-11T08:20:37;22.30;55.00
3648;DHT22;1840;48.892;15.312;2022-08-11T08:23:06;22.40;56.10
3648;DHT22;1840;48.892;15.312;2022-08-11T08:25:39;22.20;56.60
3648;DHT22;1840;48.892;15.312;2022-08-11T08:28:09;21.90;56.40
3648;DHT22;1840;48.892;15.312;2022-08-11T08:30:40;21.70;55.00
3648;DHT22;1840;48.892;15.312;2022-08-11T08:33:17;21.90;56.70
3648;DHT22;1840;48.892;15.312;2022-08-11T08:35:49;22.20;56.30
3648;DHT22;1840;48.892;15.312;2022-08-11T08:38:38;22.00;57.30
3648;DHT22;1840;48.892;15.312;2022-08-11T08:41:07;21.70;57.20
3648;DHT22;1840;48.892;15.312;2022-08-11T08:43:44;21.60;57.30
3648;DHT22;1840;48.892;15.312;2022-08-11T08:46:17;22.00;56.90
3648;DHT22;1840;48.892;15.312;2022-08-11T08:48:48;22.20;56.10
3648;DHT22;1840;48.892;15.312;2022-08-11T08:51:21;22.40;55.00
3648;DHT22;1840;48.892;15.312;2022-08-11T08:54:26;22.70;55.10
3648;DHT22;1840;48.892;15.312;2022-08-11T08:56:56;22.90;55.00
3648;DHT22;1840;48.892;15.312;2022-08-11T08:59:26;22.80;55.10
3648;DHT22;1840;48.892;15.312;2022-08-11T09:02:16;22.90;54.40
3648;DHT22;1840;48.892;15.312;2022-08-11T09:05:01;22.90;55.50
3648;DHT22;1840;48.892;15.312;2022-08-11T09:07:31;22.90;55.70
3648;DHT22;1840;48.892;15.312;2022-08-11T09:10:07;23.10;54.40
3648;DHT22;1840;48.892;15.312;2022-08-11T09:12:38;23.30;54.90
3648;DHT22;1840;48.892;15.312;2022-08-11T09:15:08;23.50;53.90
3648;DHT22;1840;48.892;15.312;2022-08-11T09:17:40;23.60;54.80
3648;DHT22;1840;48.892;15.312;2022-08-11T09:20:12;23.30;53.90
3648;DHT22;1840;48.892;15.312;2022-08-11T09:22:42;23.10;53.50
3648;DHT22;1840;48.892;15.312;2022-08-11T09:25:49;23.20;54.30
3648;DHT22;1840;48.892;15.312;2022-08-11T09:28:37;23.30;52.20
3648;DHT22;1840;48.892;15.312;2022-08-11T09:31:05;23.00;53.50
3648;DHT22;1840;48.892;15.312;2022-08-11T09:33:34;23.00;53.80
3648;DHT22;1840;48.892;15.312;2022-08-11T09:36:05;22.90;56.40
3648;DHT22;1840;48.892;15.312;2022-08-11T09:38:50;23.00;55.80
3648;DHT22;1840;48.892;15.312;2022-08-11T09:41:37;23.20;53.90
3648;DHT22;1840;48.892;15.312;2022-08-11T09:44:27;23.20;54.60
3648;DHT22;1840;48.892;15.312;2022-08-11T09:47:21;23.20;54.50
3648;DHT22;1840;48.892;15.312;2022-08-11T09:49:52;23.40;54.70
3648;DHT22;1840;48.892;15.312;2022-08-11T09:52:22;23.60;54.90
3648;DHT22;1840;48.892;15.312;2022-08-11T09:54:53;23.80;53.10
3648;DHT22;1840;48.892;15.312;2022-08-11T09:57:22;23.90;53.40
3648;DHT22;1840;48.892;15.312;2022-08-11T10:00:11;23.80;54.00
3648;DHT22;1840;48.892;15.312;2022-08-11T10:02:42;23.10;54.10
3648;DHT22;1840;48.892;15.312;2022-08-11T10:05:14;23.00;54.70
3648;DHT22;1840;48.892;15.312;2022-08-11T10:08:02;23.00;56.90
3648;DHT22;1840;48.892;15.312;2022-08-11T10:10:34;22.90;55.80
3648;DHT22;1840;48.892;15.312;2022-08-11T10:13:05;22.60;57.20
3648;DHT22;1840;48.892;15.312;2022-08-11T10:15:56;22.40;56.30
3648;DHT22;1840;48.892;15.312;2022-08-11T10:18:41;22.60;57.00
3648;DHT22;1840;48.892;15.312;2022-08-11T10:21:23;22.30;56.90
3648;DHT22;1840;48.892;15.312;2022-08-11T10:23:55;22.30;57.70
3648;DHT22;1840;48.892;15.312;2022-08-11T10:26:46;22.30;56.70
3648;DHT22;1840;48.892;15.312;2022-08-11T10:29:21;22.60;57.20
3648;DHT22;1840;48.892;15.312;2022-08-11T10:32:19;23.00;56.90
3648;DHT22;1840;48.892;15.312;2022-08-11T10:35:25;23.50;54.40
3648;DHT22;1840;48.892;15.312;2022-08-11T10:37:54;23.70;54.60
3648;DHT22;1840;48.892;15.312;2022-08-11T10:40:37;23.30;54.40
3648;DHT22;1840;48.892;15.312;2022-08-11T10:43:08;23.00;55.10
3648;DHT22;1840;48.892;15.312;2022-08-11T10:45:42;22.90;55.30
3648;DHT22;1840;48.892;15.312;2022-08-11T10:48:30;23.40;54.10
3648;DHT22;1840;48.892;15.312;2022-08-11T10:51:02;23.60;53.20
3648;DHT22;1840;48.892;15.312;2022-08-11T10:53:43;23.70;54.00
3648;DHT22;1840;48.892;15.312;2022-08-11T10:56:31;23.60;55.10
3648;DHT22;1840;48.892;15.312;2022-08-11T10:59:19;23.30;53.90
3648;DHT22;1840;48.892;15.312;2022-08-11T11:01:49;23.50;54.00
3648;DHT22;1840;48.892;15.312;2022-08-11T11:04:23;23.30;52.40
3648;DHT22;1840;48.892;15.312;2022-08-11T11:07:04;23.10;53.10
3648;DHT22;1840;48.892;15.312;2022-08-11T11:09:43;23.20;54.40
3648;DHT22;1840;48.892;15.312;2022-08-11T11:12:18;23.10;54.30
3648;DHT22;1840;48.892;15.312;2022-08-11T11:15:08;23.10;53.60
3648;DHT22;1840;48.892;15.312;2022-08-11T11:17:58;23.00;54.80
3648;DHT22;1840;48.892;15.312;2022-08-11T11:20:37;22.90;55.10
3648;DHT22;1840;48.892;15.312;2022-08-11T11:23:17;23.00;53.90
3648;DHT22;1840;48.892;15.312;2022-08-11T11:25:59;23.30;53.40
3648;DHT22;1840;48.892;15.312;2022-08-11T11:29:18;23.40;53.70
3648;DHT22;1840;48.892;15.312;2022-08-11T11:32:05;23.30;52.30
3648;DHT22;1840;48.892;15.312;2022-08-11T11:34:47;23.10;53.40
3648;DHT22;1840;48.892;15.312;2022-08-11T11:37:21;23.20;55.80
3648;DHT22;1840;48.892;15.312;2022-08-11T11:39:51;23.40;52.70
3648;DHT22;1840;48.892;15.312;2022-08-11T11:42:21;23.70;52.40
3648;DHT22;1840;48.892;15.312;2022-08-11T11:44:50;23.80;51.80
3648;DHT22;1840;48.892;15.312;2022-08-11T11:47:23;23.70;53.20
3648;DHT22;1840;48.892;15.312;2022-08-11T11:49:52;23.70;53.80
3648;DHT22;1840;48.892;15.312;2022-08-11T11:52:21;23.80;52.80
3648;DHT22;1840;48.892;15.312;2022-08-11T11:54:53;23.80;54.30
3648;DHT22;1840;48.892;15.312;2022-08-11T11:57:23;23.10;54.00
3648;DHT22;1840;48.892;15.312;2022-08-11T12:00:25;22.70;54.40
3648;DHT22;1840;48.892;15.312;2022-08-11T12:03:12;22.60;55.30
3648;DHT22;1840;48.892;15.312;2022-08-11T12:05:42;22.90;53.20
3648;DHT22;1840;48.892;15.312;2022-08-11T12:08:11;22.90;53.50
3648;DHT22;1840;48.892;15.312;2022-08-11T12:10:45;23.20;55.60
3648;DHT22;1840;48.892;15.312;2022-08-11T12:13:15;23.40;52.60
3648;DHT22;1840;48.892;15.312;2022-08-11T12:16:02;23.80;50.10
3648;DHT22;1840;48.892;15.312;2022-08-11T12:18:54;23.70;53.20
3648;DHT22;1840;48.892;15.312;2022-08-11T12:21:23;23.70;52.80
3648;DHT22;1840;48.892;15.312;2022-08-11T12:23:54;23.50;53.40
3648;DHT22;1840;48.892;15.312;2022-08-11T12:26:41;23.90;51.50
3648;DHT22;1840;48.892;15.312;2022-08-11T12:29:44;24.30;52.70
3648;DHT22;1840;48.892;15.312;2022-08-11T12:32:21;24.60;50.50
3648;DHT22;1840;48.892;15.312;2022-08-11T12:34:51;24.60;51.60
3648;DHT22;1840;48.892;15.312;2022-08-11T12:37:26;24.70;53.10
3648;DHT22;1840;48.892;15.312;2022-08-11T12:39:59;24.90;53.00
3648;DHT22;1840;48.892;15.312;2022-08-11T12:43:09;24.70;53.80
3648;DHT22;1840;48.892;15.312;2022-08-11T12:46:07;25.00;52.30
3648;DHT22;1840;48.892;15.312;2022-08-11T12:48:43;24.70;52.60
3648;DHT22;1840;48.892;15.312;2022-08-11T12:51:37;24.40;52.50
3648;DHT22;1840;48.892;15.312;2022-08-11T12:54:49;24.10;52.60
3648;DHT22;1840;48.892;15.312;2022-08-11T12:57:24;23.90;53.30
3648;DHT22;1840;48.892;15.312;2022-08-11T13:00:12;24.20;53.50
3648;DHT22;1840;48.892;15.312;2022-08-11T13:02:58;24.20;52.40
3648;DHT22;1840;48.892;15.312;2022-08-11T13:05:46;24.70;51.60
3648;DHT22;1840;48.892;15.312;2022-08-11T13:08:19;24.60;50.90
3648;DHT22;1840;48.892;15.312;2022-08-11T13:10:49;24.30;52.10
3648;DHT22;1840;48.892;15.312;2022-08-11T13:13:37;24.20;52.60
3648;DHT22;1840;48.892;15.312;2022-08-11T13:16:26;23.90;53.50
3648;DHT22;1840;48.892;15.312;2022-08-11T13:18:55;23.80;53.90
3648;DHT22;1840;48.892;15.312;2022-08-11T13:21:25;23.70;53.90
3648;DHT22;1840;48.892;15.312;2022-08-11T13:23:56;23.70;54.70
3648;DHT22;1840;48.892;15.312;2022-08-11T13:26:31;23.70;54.50
3648;DHT22;1840;48.892;15.312;2022-08-11T13:29:20;23.80;54.40
3648;DHT22;1840;48.892;15.312;2022-08-11T13:31:50;23.80;55.10
3648;DHT22;1840;48.892;15.312;2022-08-11T13:34:20;23.90;55.00
3648;DHT22;1840;48.892;15.312;2022-08-11T13:36:51;23.90;56.60
3648;DHT22;1840;48.892;15.312;2022-08-11T13:39:23;23.80;57.00
3648;DHT22;1840;48.892;15.312;2022-08-11T13:41:54;23.80;57.80
3648;DHT22;1840;48.892;15.312;2022-08-11T13:44:25;24.20;56.30
3648;DHT22;1840;48.892;15.312;2022-08-11T13:46:56;24.50;54.70
3648;DHT22;1840;48.892;15.312;2022-08-11T13:49:28;24.10;54.10
3648;DHT22;1840;48.892;15.312;2022-08-11T13:51:57;23.90;54.70
3648;DHT22;1840;48.892;15.312;2022-08-11T13:54:30;24.20;56.90
3648;DHT22;1840;48.892;15.312;2022-08-11T13:57:03;24.50;56.20
3648;DHT22;1840;48.892;15.312;2022-08-11T13:59:40;24.30;54.90
3648;DHT22;1840;48.892;15.312;2022-08-11T14:02:22;24.00;56.30
3648;DHT22;1840;48.892;15.312;2022-08-11T14:04:57;23.80;54.40
3648;DHT22;1840;48.892;15.312;2022-08-11T14:07:31;23.90;53.70
3648;DHT22;1840;48.892;15.312;2022-08-11T14:10:05;24.00;54.20
3648;DHT22;1840;48.892;15.312;2022-08-11T14:12:36;23.90;53.80
3648;DHT22;1840;48.892;15.312;2022-08-11T14:15:22;24.00;54.40
3648;DHT22;1840;48.892;15.312;2022-08-11T14:17:55;24.00;54.20
3648;DHT22;1840;48.892;15.312;2022-08-11T14:20:31;24.00;54.90
3648;DHT22;1840;48.892;15.312;2022-08-11T14:23:26;23.90;55.30
3648;DHT22;1840;48.892;15.312;2022-08-11T14:25:56;24.00;55.00
3648;DHT22;1840;48.892;15.312;2022-08-11T14:28:42;24.10;55.10
3648;DHT22;1840;48.892;15.312;2022-08-11T14:31:12;24.00;54.90
3648;DHT22;1840;48.892;15.312;2022-08-11T14:33:42;23.90;54.20
3648;DHT22;1840;48.892;15.312;2022-08-11T14:36:33;23.80;55.90
3648;DHT22;1840;48.892;15.312;2022-08-11T14:39:05;24.00;56.30
3648;DHT22;1840;48.892;15.312;2022-08-11T14:41:35;24.10;55.60
3648;DHT22;1840;48.892;15.312;2022-08-11T14:44:41;24.00;55.90
3648;DHT22;1840;48.892;15.312;2022-08-11T14:47:28;23.90;54.20
3648;DHT22;1840;48.892;15.312;2022-08-11T14:49:59;23.80;54.90
3648;DHT22;1840;48.892;15.312;2022-08-11T14:52:36;23.70;55.90
3648;DHT22;1840;48.892;15.312;2022-08-11T14:55:07;23.70;56.00
3648;DHT22;1840;48.892;15.312;2022-08-11T14:57:54;23.40;55.80
3648;DHT22;1840;48.892;15.312;2022-08-11T15:00:24;23.30;56.50
3648;DHT22;1840;48.892;15.312;2022-08-11T15:02:54;23.40;55.60
3648;DHT22;1840;48.892;15.312;2022-08-11T15:05:46;23.50;55.80
3648;DHT22;1840;48.892;15.312;2022-08-11T15:08:27;23.50;55.20
3648;DHT22;1840;48.892;15.312;2022-08-11T15:11:15;23.50;55.00
3648;DHT22;1840;48.892;15.312;2022-08-11T15:14:17;23.50;54.90
3648;DHT22;1840;48.892;15.312;2022-08-11T15:17:01;23.50;54.70
3648;DHT22;1840;48.892;15.312;2022-08-11T15:19:39;23.40;54.50
3648;DHT22;1840;48.892;15.312;2022-08-11T15:22:30;23.30;54.50
3648;DHT22;1840;48.892;15.312;2022-08-11T15:25:15;23.20;54.50
3648;DHT22;1840;48.892;15.312;2022-08-11T15:27:47;23.20;54.90
3648;DHT22;1840;48.892;15.312;2022-08-11T15:30:36;23.10;55.80
3648;DHT22;1840;48.892;15.312;2022-08-11T15:33:24;23.00;55.90
3648;DHT22;1840;48.892;15.312;2022-08-11T15:36:13;22.90;56.50
3648;DHT22;1840;48.892;15.312;2022-08-11T15:39:02;22.80;55.80
3648;DHT22;1840;48.892;15.312;2022-08-11T15:41:38;22.70;56.90
3648;DHT22;1840;48.892;15.312;2022-08-11T15:44:28;22.70;57.10
3648;DHT22;1840;48.892;15.312;2022-08-11T15:47:35;22.70;56.30
3648;DHT22;1840;48.892;15.312;2022-08-11T15:50:09;22.80;56.80
3648;DHT22;1840;48.892;15.312;2022-08-11T15:52:46;22.70;56.90
3648;DHT22;1840;48.892;15.312;2022-08-11T15:55:17;22.70;56.90
3648;DHT22;1840;48.892;15.312;2022-08-11T15:57:48;22.60;57.10
3648;DHT22;1840;48.892;15.312;2022-08-11T16:00:36;22.50;56.70
3648;DHT22;1840;48.892;15.312;2022-08-11T16:03:34;22.60;57.10
3648;DHT22;1840;48.892;15.312;2022-08-11T16:06:36;22.40;57.40
3648;DHT22;1840;48.892;15.312;2022-08-11T16:09:16;22.40;57.20
3648;DHT22;1840;48.892;15.312;2022-08-11T16:11:45;22.30;57.90
3648;DHT22;1840;48.892;15.312;2022-08-11T16:14:15;22.20;57.60
3648;DHT22;1840;48.892;15.312;2022-08-11T16:17:02;22.20;57.90
3648;DHT22;1840;48.892;15.312;2022-08-11T16:19:33;22.20;57.80
3648;DHT22;1840;48.892;15.312;2022-08-11T16:22:07;22.10;58.20
3648;DHT22;1840;48.892;15.312;2022-08-11T16:24:39;22.00;58.30
3648;DHT22;1840;48.892;15.312;2022-08-11T16:27:32;22.00;59.10
3648;DHT22;1840;48.892;15.312;2022-08-11T16:30:03;21.90;58.50
3648;DHT22;1840;48.892;15.312;2022-08-11T16:32:34;21.90;58.50
3648;DHT22;1840;48.892;15.312;2022-08-11T16:35:08;22.00;58.60
3648;DHT22;1840;48.892;15.312;2022-08-11T16:37:55;22.00;58.30
3648;DHT22;1840;48.892;15.312;2022-08-11T16:40:42;21.90;58.30
3648;DHT22;1840;48.892;15.312;2022-08-11T16:43:14;21.80;58.20
3648;DHT22;1840;48.892;15.312;2022-08-11T16:46:02;21.90;58.80
3648;DHT22;1840;48.892;15.312;2022-08-11T16:48:54;22.00;58.60
3648;DHT22;1840;48.892;15.312;2022-08-11T16:51:25;22.00;58.30
3648;DHT22;1840;48.892;15.312;2022-08-11T16:53:53;22.10;58.20
3648;DHT22;1840;48.892;15.312;2022-08-11T16:56:34;22.10;58.10
3648;DHT22;1840;48.892;15.312;2022-08-11T16:59:07;22.20;57.50
3648;DHT22;1840;48.892;15.312;2022-08-11T17:01:47;22.20;57.60
3648;DHT22;1840;48.892;15.312;2022-08-11T17:04:27;22.10;58.00
3648;DHT22;1840;48.892;15.312;2022-08-11T17:07:16;22.00;57.80
3648;DHT22;1840;48.892;15.312;2022-08-11T17:10:12;21.90;57.70
3648;DHT22;1840;48.892;15.312;2022-08-11T17:13:22;21.80;58.40
3648;DHT22;1840;48.892;15.312;2022-08-11T17:15:56;21.80;58.10
3648;DHT22;1840;48.892;15.312;2022-08-11T17:18:43;21.70;57.70
3648;DHT22;1840;48.892;15.312;2022-08-11T17:21:19;21.60;58.20
3648;DHT22;1840;48.892;15.312;2022-08-11T17:23:54;21.60;58.40
3648;DHT22;1840;48.892;15.312;2022-08-11T17:26:25;21.40;59.00
3648;DHT22;1840;48.892;15.312;2022-08-11T17:29:16;21.40;58.90
3648;DHT22;1840;48.892;15.312;2022-08-11T17:31:46;21.30;59.10
3648;DHT22;1840;48.892;15.312;2022-08-11T17:34:33;21.30;58.70
3648;DHT22;1840;48.892;15.312;2022-08-11T17:37:20;21.20;58.80
3648;DHT22;1840;48.892;15.312;2022-08-11T17:39:52;21.10;59.20
3648;DHT22;1840;48.892;15.312;2022-08-11T17:42:25;21.00;59.50
3648;DHT22;1840;48.892;15.312;2022-08-11T17:45:11;20.90;59.80
3648;DHT22;1840;48.892;15.312;2022-08-11T17:48:00;20.80;60.30
3648;DHT22;1840;48.892;15.312;2022-08-11T17:50:47;20.60;60.20
3648;DHT22;1840;48.892;15.312;2022-08-11T17:53:16;20.60;60.50
3648;DHT22;1840;48.892;15.312;2022-08-11T17:56:05;20.40;60.70
3648;DHT22;1840;48.892;15.312;2022-08-11T17:58:53;20.50;60.50
3648;DHT22;1840;48.892;15.312;2022-08-11T18:01:48;20.50;60.30
3648;DHT22;1840;48.892;15.312;2022-08-11T18:04:20;20.40;60.50
3648;DHT22;1840;48.892;15.312;2022-08-11T18:06:49;20.00;62.60
3648;DHT22;1840;48.892;15.312;2022-08-11T18:09:20;19.80;62.60
3648;DHT22;1840;48.892;15.312;2022-08-11T18:12:09;19.70;62.50
3648;DHT22;1840;48.892;15.312;2022-08-11T18:14:55;19.80;62.20
3648;DHT22;1840;48.892;15.312;2022-08-11T18:17:42;19.70;62.30
3648;DHT22;1840;48.892;15.312;2022-08-11T18:20:28;19.70;62.20
3648;DHT22;1840;48.892;15.312;2022-08-11T18:23:18;19.60;65.00